Time;durP1;ratioP1;P1;durP2;ratioP2;P2;SDS_P1;SDS_P2;PMS_P1;PMS_P2;Temp;Humidity;BMP_temperature;BMP_pressure;BME280_temperature;BME280_humidity;BME280_pressure;Samples;Min_cycle;Max_cycle;Signal;HPM_P1;HPM_P2
2022/04/15 00:01:17;;;;;;;;;23.33;21.67;;;;;15.80;62.80;102165.78;5063924;28;45829;-70
2022/04/15 00:03:43;;;;;;;;;23.00;22.33;;;;;15.78;63.12;102164.22;5076307;28;46295;-71
2022/04/15 00:06:10;;;;;;;;;22.25;22.25;;;;;15.78;62.88;102175.19;5079001;28;45470;-71
2022/04/15 00:08:36;;;;;;;;;18.67;18.67;;;;;15.70;62.48;102162.22;5083057;28;45168;-69
2022/04/15 00:11:02;;;;;;;;;22.00;18.67;;;;;15.80;62.27;102174.00;5079320;28;45784;-70
2022/04/15 00:13:29;;;;;;;;;18.00;17.33;;;;;15.83;62.08;102172.84;5062577;28;45373;-70
2022/04/15 00:15:58;;;;;;;;;15.33;15.33;;;;;15.79;61.88;102160.44;5066482;28;45352;-70
2022/04/15 00:18:24;;;;;;;;;16.00;16.00;;;;;15.83;61.50;102167.38;5063719;28;45326;-70
2022/04/15 00:20:51;;;;;;;;;15.33;15.33;;;;;15.79;61.42;102165.94;5078132;28;45487;-70
2022/04/15 00:23:18;;;;;;;;;16.33;11.00;;;;;15.82;61.75;102166.50;5078054;28;47429;-70
2022/04/15 00:25:43;;;;;;;;;16.33;14.67;;;;;15.79;62.31;102163.19;5075345;28;45403;-70
2022/04/15 00:28:09;;;;;;;;;14.67;14.00;;;;;15.81;62.83;102163.91;5077478;27;45315;-70
2022/04/15 00:30:34;;;;;;;;;15.00;15.00;;;;;15.73;62.80;102163.78;5081448;27;45623;-70
2022/04/15 00:33:00;;;;;;;;;15.33;14.33;;;;;15.69;62.83;102165.09;5072779;28;46400;-70
2022/04/15 00:35:25;;;;;;;;;10.33;10.33;;;;;15.64;63.35;102162.78;5074548;28;45411;-70
2022/04/15 00:37:50;;;;;;;;;13.33;13.33;;;;;15.62;63.69;102166.69;5071338;28;45294;-70
2022/04/15 00:40:16;;;;;;;;;14.33;14.33;;;;;15.61;63.67;102175.94;5073952;28;45492;-70
2022/04/15 00:42:41;;;;;;;;;12.67;10.67;;;;;15.63;62.42;102171.19;5070509;28;46408;-70
2022/04/15 00:45:10;;;;;;;;;15.33;11.67;;;;;15.58;62.58;102174.34;5074955;28;48075;-70
2022/04/15 00:47:52;;;;;;;;;12.33;11.00;;;;;15.57;62.35;102176.22;5069040;28;45387;-70
2022/04/15 00:50:22;;;;;;;;;13.33;12.33;;;;;15.60;63.11;102172.31;5078287;28;45393;-70
2022/04/15 00:52:49;;;;;;;;;12.33;12.00;;;;;15.53;63.54;102166.56;5071815;28;46813;-70
2022/04/15 00:55:17;;;;;;;;;11.00;9.00;;;;;15.52;63.99;102174.88;5069839;27;45414;-70
2022/04/15 00:57:45;;;;;;;;;12.33;11.00;;;;;15.51;63.54;102179.50;5070578;28;45393;-70
2022/04/15 01:00:13;;;;;;;;;12.00;11.33;;;;;15.50;63.21;102176.91;5073781;28;45164;-70
2022/04/15 01:02:39;;;;;;;;;14.33;10.33;;;;;15.43;63.99;102173.00;5069878;28;45409;-69
2022/04/15 01:05:07;;;;;;;;;10.67;9.33;;;;;15.42;63.65;102177.63;5075304;28;45486;-70
2022/04/15 01:07:35;;;;;;;;;10.00;10.00;;;;;15.31;64.05;102165.97;5074574;28;45500;-70
2022/04/15 01:10:04;;;;;;;;;10.33;10.33;;;;;15.29;63.81;102170.72;5071677;28;45484;-70
2022/04/15 01:12:31;;;;;;;;;10.00;10.00;;;;;15.29;64.45;102174.31;5072186;27;47866;-70
2022/04/15 01:15:03;;;;;;;;;10.00;10.00;;;;;15.27;63.72;102168.13;5077870;28;45363;-71
2022/04/15 01:17:29;;;;;;;;;11.67;11.00;;;;;15.21;64.35;102174.19;5068892;28;45448;-70
2022/04/15 01:19:55;;;;;;;;;8.67;7.00;;;;;15.13;64.74;102174.03;5069694;27;45452;-71
2022/04/15 01:22:24;;;;;;;;;15.33;12.67;;;;;15.12;64.75;102173.16;5065467;28;45452;-70
2022/04/15 01:24:50;;;;;;;;;11.00;11.00;;;;;15.10;64.55;102174.34;5073358;28;45511;-70
2022/04/15 01:27:26;;;;;;;;;10.00;10.00;;;;;15.08;64.63;102177.22;5070883;27;45276;-70
2022/04/15 01:29:52;;;;;;;;;12.00;12.00;;;;;15.02;65.09;102177.78;5072603;28;45246;-70
2022/04/15 01:32:18;;;;;;;;;12.33;10.00;;;;;14.96;65.21;102172.88;5068943;28;47301;-70
2022/04/15 01:34:43;;;;;;;;;9.00;9.00;;;;;14.85;65.61;102170.25;5070563;28;45439;-70
2022/04/15 01:37:09;;;;;;;;;12.33;12.00;;;;;14.87;65.09;102178.34;5080765;28;45535;-70
2022/04/15 01:39:36;;;;;;;;;10.00;10.00;;;;;14.84;65.19;102174.00;5072338;28;45289;-70
2022/04/15 01:42:02;;;;;;;;;11.67;11.00;;;;;14.87;65.38;102183.81;5070471;27;45404;-70
2022/04/15 01:44:27;;;;;;;;;8.67;8.67;;;;;14.80;65.87;102181.63;5071205;28;45527;-71
2022/04/15 01:46:53;;;;;;;;;11.67;10.00;;;;;14.78;66.18;102183.66;5077910;28;45442;-69
2022/04/15 01:49:18;;;;;;;;;10.33;6.67;;;;;14.80;65.54;102184.38;5068934;28;45616;-71
2022/04/15 01:51:44;;;;;;;;;9.00;8.33;;;;;14.75;66.08;102175.75;5070892;27;46689;-70
2022/04/15 01:54:09;;;;;;;;;11.00;8.67;;;;;14.72;66.16;102181.47;5068319;28;45495;-70
2022/04/15 01:56:34;;;;;;;;;11.00;9.00;;;;;14.67;66.23;102178.31;5075926;28;45302;-71
2022/04/15 01:59:00;;;;;;;;;12.00;10.33;;;;;14.66;66.24;102183.91;5067478;28;45219;-70
2022/04/15 02:01:25;;;;;;;;;11.00;11.00;;;;;14.64;66.43;102177.69;5078697;27;45541;-70
2022/04/15 02:03:51;;;;;;;;;10.67;9.00;;;;;14.61;66.46;102169.81;5068430;28;45552;-70
2022/04/15 02:06:16;;;;;;;;;10.67;9.67;;;;;14.58;66.59;102172.81;5073407;28;45331;-70
2022/04/15 02:08:41;;;;;;;;;14.00;10.67;;;;;14.57;66.52;102171.94;5064966;28;45163;-70
2022/04/15 02:11:07;;;;;;;;;16.00;11.00;;;;;14.52;66.62;102173.38;5080183;28;47097;-70
2022/04/15 02:13:32;;;;;;;;;14.33;10.67;;;;;14.38;66.56;102163.69;5064775;28;45388;-71
2022/04/15 02:15:58;;;;;;;;;13.33;11.33;;;;;14.40;66.89;102175.31;5071990;28;45470;-71
2022/04/15 02:18:26;;;;;;;;;9.00;8.67;;;;;14.40;67.16;102178.06;5067193;28;45421;-70
2022/04/15 02:20:52;;;;;;;;;11.00;11.00;;;;;14.39;67.04;102181.81;5079701;28;46372;-70
2022/04/15 02:23:17;;;;;;;;;9.00;8.67;;;;;14.36;67.27;102180.19;5064314;28;45463;-70
2022/04/15 02:25:42;;;;;;;;;13.00;13.00;;;;;14.32;67.08;102177.84;5078670;28;45443;-70
2022/04/15 02:28:08;;;;;;;;;9.67;9.67;;;;;14.32;67.23;102177.84;5077331;27;45326;-70
2022/04/15 02:30:33;;;;;;;;;9.33;9.33;;;;;14.30;67.66;102178.00;5084161;27;45389;-71
2022/04/15 02:32:58;;;;;;;;;13.33;12.00;;;;;14.33;67.04;102168.63;5081354;28;45432;-71
2022/04/15 02:35:24;;;;;;;;;12.67;12.00;;;;;14.31;66.69;102167.94;5082118;28;45354;-70
2022/04/15 02:37:49;;;;;;;;;11.67;11.00;;;;;14.31;67.08;102176.13;5064424;28;45337;-70
2022/04/15 02:40:14;;;;;;;;;11.67;11.67;;;;;14.29;67.15;102180.88;5076100;28;46469;-70
2022/04/15 02:42:40;;;;;;;;;11.00;10.33;;;;;14.16;67.40;102167.44;5073046;28;45683;-70
2022/04/15 02:45:07;;;;;;;;;13.67;13.00;;;;;14.18;67.50;102176.34;5075273;28;45449;-70
2022/04/15 02:47:32;;;;;;;;;14.33;13.67;;;;;14.14;67.60;102168.56;5077881;28;45393;-70
2022/04/15 02:49:58;;;;;;;;;14.67;14.00;;;;;14.14;67.92;102174.03;5082678;28;46069;-71
2022/04/15 02:52:24;;;;;;;;;12.67;11.67;;;;;14.10;68.51;102172.59;5069388;28;45983;-70
2022/04/15 02:54:49;;;;;;;;;14.33;14.00;;;;;14.09;68.32;102184.53;5072668;28;45472;-70
2022/04/15 02:57:14;;;;;;;;;16.00;14.33;;;;;14.06;68.41;102182.91;5069689;28;45391;-70
2022/04/15 02:59:40;;;;;;;;;13.00;13.00;;;;;14.06;68.54;102188.38;5074993;28;47302;-70
2022/04/15 03:02:05;;;;;;;;;12.33;12.33;;;;;14.06;68.25;102195.72;5067831;27;45369;-70
2022/04/15 03:04:31;;;;;;;;;13.67;13.67;;;;;14.06;68.69;102193.84;5074605;28;45524;-70
2022/04/15 03:06:56;;;;;;;;;17.00;13.67;;;;;14.04;68.76;102193.97;5076121;28;45362;-70
2022/04/15 03:09:22;;;;;;;;;14.00;13.67;;;;;14.01;68.82;102191.53;5068592;28;45663;-70
2022/04/15 03:11:48;;;;;;;;;16.67;13.67;;;;;13.99;69.55;102190.81;5066378;28;45340;-70
2022/04/15 03:14:13;;;;;;;;;12.00;11.00;;;;;13.95;69.63;102193.94;5067662;28;45433;-70
2022/04/15 03:16:39;;;;;;;;;15.33;13.00;;;;;13.95;69.43;102186.59;5063921;28;45555;-70
2022/04/15 03:19:04;;;;;;;;;16.00;14.00;;;;;13.91;69.51;102181.53;5068156;28;46765;-70
2022/04/15 03:21:30;;;;;;;;;14.67;13.67;;;;;13.95;69.71;102193.94;5076718;28;45270;-70
2022/04/15 03:23:56;;;;;;;;;15.00;13.00;;;;;13.94;69.20;102189.47;5065125;28;45281;-70
2022/04/15 03:26:22;;;;;;;;;15.33;13.00;;;;;13.91;70.17;102185.16;5076301;28;45276;-70
2022/04/15 03:28:48;;;;;;;;;13.00;13.00;;;;;13.92;70.23;102192.34;5091661;27;47140;-70
2022/04/15 03:31:13;;;;;;;;;13.67;13.67;;;;;13.81;69.75;102186.06;5077292;28;45412;-70
2022/04/15 03:33:39;;;;;;;;;15.33;15.33;;;;;13.83;69.95;102187.69;5069242;28;45389;-70
2022/04/15 03:36:04;;;;;;;;;19.00;17.00;;;;;13.83;70.19;102193.16;5075320;27;45424;-70
2022/04/15 03:38:30;;;;;;;;;14.33;14.00;;;;;13.84;70.16;102188.56;5063099;28;45467;-70
2022/04/15 03:40:55;;;;;;;;;14.33;14.00;;;;;13.85;70.59;102199.34;5075790;28;45377;-71
2022/04/15 03:43:20;;;;;;;;;13.33;13.33;;;;;13.85;70.34;102193.88;5071113;27;45321;-70
2022/04/15 03:45:46;;;;;;;;;20.67;18.00;;;;;13.78;71.22;102189.97;5074117;28;45489;-71
2022/04/15 03:48:11;;;;;;;;;17.33;15.00;;;;;13.79;70.63;102199.91;5069887;28;46462;-70
2022/04/15 03:50:36;;;;;;;;;22.00;20.00;;;;;13.77;71.37;102204.63;5072384;28;45427;-70
2022/04/15 03:53:02;;;;;;;;;28.25;26.00;;;;;13.70;71.08;102202.56;5068955;28;45725;-70
2022/04/15 03:55:27;;;;;;;;;18.00;18.00;;;;;13.70;71.77;102197.94;5080486;28;45428;-70
2022/04/15 03:57:53;;;;;;;;;31.75;25.75;;;;;13.68;71.88;102202.69;5065254;28;45520;-70
2022/04/15 04:00:24;;;;;;;;;21.50;21.50;;;;;13.67;71.64;102208.25;5075138;28;45396;-71
2022/04/15 04:02:52;;;;;;;;;21.50;19.00;;;;;13.66;71.44;102199.25;5066798;28;45340;-70
2022/04/15 04:05:18;;;;;;;;;17.00;17.00;;;;;13.66;71.38;102209.28;5073795;28;45649;-71
2022/04/15 04:07:44;;;;;;;;;21.00;16.00;;;;;13.64;71.18;102209.41;5069349;28;45510;-70
2022/04/15 04:10:14;;;;;;;;;15.00;15.00;;;;;13.65;71.50;102211.16;5067122;28;45406;-70
2022/04/15 04:12:41;;;;;;;;;19.00;19.00;;;;;13.68;71.47;102221.78;5063043;28;45456;-71
2022/04/15 04:15:08;;;;;;;;;20.67;16.67;;;;;13.67;70.60;102206.41;5072671;28;45721;-70
2022/04/15 04:17:33;;;;;;;;;19.00;15.67;;;;;13.66;70.40;102207.44;5070529;28;46168;-70
2022/04/15 04:19:59;;;;;;;;;18.00;16.33;;;;;13.63;70.58;102218.59;5066286;28;45400;-70
2022/04/15 04:22:32;;;;;;;;;17.00;17.00;;;;;13.49;70.90;102205.28;5072282;28;45498;-70
2022/04/15 04:24:58;;;;;;;;;20.00;18.33;;;;;13.56;70.98;102223.72;5074687;28;45521;-70
2022/04/15 04:27:24;;;;;;;;;17.67;17.00;;;;;13.54;70.98;102230.31;5082445;27;48054;-70
2022/04/15 04:29:50;;;;;;;;;18.33;16.67;;;;;13.46;71.43;102222.78;5089895;27;45674;-70
2022/04/15 04:32:17;;;;;;;;;14.25;13.00;;;;;13.46;71.39;102228.22;5067632;28;45256;-70
2022/04/15 04:34:43;;;;;;;;;19.67;18.67;;;;;13.44;71.64;102232.94;5075720;27;45453;-71
2022/04/15 04:37:08;;;;;;;;;17.00;15.00;;;;;13.44;71.64;102223.94;5081124;28;48179;-71
2022/04/15 04:39:34;;;;;;;;;19.67;15.67;;;;;13.45;71.35;102229.22;5064817;28;45376;-69
2022/04/15 04:42:00;;;;;;;;;22.00;19.50;;;;;13.44;71.38;102223.94;5065441;28;45297;-69
2022/04/15 04:44:27;;;;;;;;;17.00;13.67;;;;;13.32;71.33;102224.94;5069186;28;45305;-68
2022/04/15 04:46:54;;;;;;;;;19.00;17.33;;;;;13.28;71.83;102232.56;5068407;28;45709;-68
2022/04/15 04:49:19;;;;;;;;;15.33;12.00;;;;;13.28;71.88;102231.69;5069370;28;45396;-68
2022/04/15 04:51:45;;;;;;;;;15.00;12.67;;;;;13.33;71.54;102230.28;5077046;28;45298;-69
2022/04/15 04:54:11;;;;;;;;;20.00;18.00;;;;;13.20;71.44;102222.28;5071241;28;45630;-68
2022/04/15 04:56:36;;;;;;;;;18.33;13.67;;;;;13.33;71.56;102243.06;5068614;28;47160;-69
2022/04/15 04:59:02;;;;;;;;;17.67;16.67;;;;;13.30;71.67;102243.31;5065373;28;45829;-69
2022/04/15 05:01:27;;;;;;;;;14.33;12.00;;;;;13.27;71.23;102235.41;5075064;28;45281;-69
2022/04/15 05:03:53;;;;;;;;;17.67;16.00;;;;;13.28;71.61;102242.59;5065205;28;45359;-68
2022/04/15 05:06:18;;;;;;;;;16.33;15.00;;;;;13.25;71.76;102254.63;5081797;28;48278;-68
2022/04/15 05:08:43;;;;;;;;;17.00;17.00;;;;;13.25;71.56;102252.78;5065188;28;45397;-69
2022/04/15 05:11:09;;;;;;;;;12.33;12.33;;;;;13.27;71.29;102246.31;5072975;28;45369;-69
2022/04/15 05:13:34;;;;;;;;;19.00;18.67;;;;;13.30;71.09;102251.50;5068179;28;45644;-70
2022/04/15 05:15:59;;;;;;;;;17.67;14.00;;;;;13.29;71.51;102258.84;5068659;28;45585;-69
2022/04/15 05:18:24;;;;;;;;;19.00;19.00;;;;;13.31;71.11;102261.44;5066796;28;45441;-69
2022/04/15 05:20:50;;;;;;;;;18.00;15.33;;;;;13.29;71.20;102257.97;5080024;28;45393;-69
2022/04/15 05:23:15;;;;;;;;;22.67;15.00;;;;;13.36;70.86;102268.25;5080637;27;45529;-69
2022/04/15 05:25:41;;;;;;;;;12.67;12.67;;;;;13.31;71.04;102264.16;5068165;28;48092;-69
2022/04/15 05:28:06;;;;;;;;;16.33;12.33;;;;;13.28;71.00;102257.13;5077859;27;45453;-69
2022/04/15 05:30:32;;;;;;;;;11.33;8.67;;;;;13.40;70.97;102268.84;5085467;27;45273;-70
2022/04/15 05:32:57;;;;;;;;;13.00;11.67;;;;;13.42;70.99;102265.00;5074351;28;45236;-69
2022/04/15 05:35:22;;;;;;;;;13.67;13.67;;;;;13.44;70.61;102263.00;5077009;28;46468;-69
2022/04/15 05:37:48;;;;;;;;;15.33;11.33;;;;;13.54;70.36;102274.00;5064053;28;45427;-68
2022/04/15 05:40:14;;;;;;;;;17.00;15.00;;;;;13.57;70.86;102273.75;5074452;28;45418;-68
2022/04/15 05:42:39;;;;;;;;;17.00;15.67;;;;;13.62;70.04;102285.16;5072447;27;45536;-69
2022/04/15 05:45:05;;;;;;;;;14.33;14.33;;;;;13.76;69.70;102283.97;5076708;28;46734;-69
2022/04/15 05:47:30;;;;;;;;;16.00;12.67;;;;;13.82;69.17;102275.22;5069723;28;45301;-67
2022/04/15 05:49:56;;;;;;;;;28.00;21.00;;;;;13.86;68.72;102283.03;5073501;28;45338;-68
2022/04/15 05:52:21;;;;;;;;;20.00;18.67;;;;;13.96;69.19;102270.31;5071007;28;45299;-68
2022/04/15 05:54:46;;;;;;;;;15.67;14.67;;;;;14.26;68.84;102265.88;5068516;28;47097;-69
2022/04/15 05:57:13;;;;;;;;;18.67;17.00;;;;;14.68;66.90;102273.03;5063683;28;45348;-69
2022/04/15 05:59:38;;;;;;;;;15.00;15.00;;;;;14.59;66.66;102282.06;5071491;28;45543;-69
2022/04/15 06:02:04;;;;;;;;;21.33;16.67;;;;;14.40;66.32;102263.69;5067696;27;45394;-69
2022/04/15 06:04:29;;;;;;;;;18.67;16.00;;;;;14.66;66.33;102288.72;5069332;28;45593;-68
2022/04/15 06:06:54;;;;;;;;;21.00;19.50;;;;;14.66;65.93;102286.00;5075243;28;45413;-68
2022/04/15 06:09:20;;;;;;;;;17.00;15.33;;;;;14.65;66.24;102286.13;5068044;28;45538;-68
2022/04/15 06:11:45;;;;;;;;;20.67;18.67;;;;;14.77;65.72;102283.16;5065275;28;45496;-68
2022/04/15 06:14:11;;;;;;;;;19.00;15.00;;;;;14.83;65.74;102280.88;5074628;28;48073;-68
2022/04/15 06:16:38;;;;;;;;;19.33;15.67;;;;;14.92;65.24;102282.75;5072383;28;45389;-68
2022/04/15 06:19:05;;;;;;;;;19.00;17.00;;;;;15.01;64.45;102282.78;5066973;28;45327;-68
2022/04/15 06:21:31;;;;;;;;;18.00;15.67;;;;;15.36;64.75;102285.03;5075565;28;45401;-68
2022/04/15 06:23:57;;;;;;;;;22.00;17.67;;;;;15.43;63.86;102302.63;5064150;28;45456;-69
2022/04/15 06:26:22;;;;;;;;;26.67;19.67;;;;;15.35;63.46;102298.84;5071420;28;45168;-71
2022/04/15 06:28:48;;;;;;;;;24.33;18.33;;;;;15.25;64.36;102304.31;5092970;27;45550;-70
2022/04/15 06:31:13;;;;;;;;;21.00;21.00;;;;;15.28;64.43;102306.78;5077136;27;45376;-70
2022/04/15 06:33:39;;;;;;;;;23.00;19.33;;;;;15.27;65.35;102306.94;5069757;28;45852;-70
2022/04/15 06:36:04;;;;;;;;;29.67;23.00;;;;;15.17;64.93;102312.38;5073729;28;45249;-70
2022/04/15 06:38:30;;;;;;;;;29.67;25.33;;;;;15.17;64.95;102306.91;5063228;28;45398;-70
2022/04/15 06:40:55;;;;;;;;;31.00;25.75;;;;;15.29;63.87;102315.84;5075099;28;45429;-70
2022/04/15 06:43:21;;;;;;;;;27.75;24.50;;;;;15.49;64.73;102312.13;5069726;28;46187;-72
2022/04/15 06:45:46;;;;;;;;;28.25;21.25;;;;;15.63;64.96;102313.66;5073206;28;45477;-69
2022/04/15 06:48:12;;;;;;;;;22.00;20.00;;;;;15.68;64.16;102308.59;5069847;28;45324;-69
2022/04/15 06:50:37;;;;;;;;;28.00;24.75;;;;;15.89;63.41;102314.78;5072421;28;45479;-69
2022/04/15 06:53:03;;;;;;;;;27.50;27.25;;;;;16.15;61.78;102304.94;5068321;28;45362;-69
2022/04/15 06:55:28;;;;;;;;;26.75;23.50;;;;;16.14;61.68;102308.72;5075787;28;45676;-69
2022/04/15 06:57:54;;;;;;;;;26.00;23.50;;;;;16.22;60.94;102313.44;5074795;28;45261;-69
2022/04/15 07:00:19;;;;;;;;;43.50;36.00;;;;;16.08;61.25;102314.75;5076481;27;45518;-69
2022/04/15 07:02:44;;;;;;;;;29.75;28.25;;;;;16.11;61.74;102319.97;5066248;28;45321;-69
2022/04/15 07:05:10;;;;;;;;;28.50;24.00;;;;;16.20;60.58;102316.34;5072151;28;45179;-69
2022/04/15 07:07:37;;;;;;;;;32.00;30.75;;;;;16.13;61.17;102317.09;5070487;28;45336;-70
2022/04/15 07:10:03;;;;;;;;;37.75;32.00;;;;;16.28;61.11;102315.63;5067476;28;45329;-69
2022/04/15 07:12:29;;;;;;;;;29.00;24.50;;;;;16.51;60.08;102322.47;5063718;28;45476;-68
2022/04/15 07:14:56;;;;;;;;;22.33;18.67;;;;;16.76;59.27;102318.22;5065227;28;45411;-69
2022/04/15 07:17:21;;;;;;;;;17.33;17.00;;;;;16.96;58.69;102327.25;5071432;28;45384;-69
2022/04/15 07:19:46;;;;;;;;;28.00;22.00;;;;;17.09;58.44;102323.13;5069661;28;45489;-69
2022/04/15 07:22:12;;;;;;;;;29.50;29.50;;;;;17.02;57.90;102322.00;5070492;28;46735;-70
2022/04/15 07:24:37;;;;;;;;;24.00;22.25;;;;;16.96;57.83;102330.84;5077114;28;45457;-70
2022/04/15 07:27:03;;;;;;;;;27.33;23.67;;;;;17.07;57.72;102330.66;5079534;28;45694;-71
2022/04/15 07:29:30;;;;;;;;;26.00;23.00;;;;;17.18;57.52;102325.97;5089167;27;45531;-70
2022/04/15 07:31:56;;;;;;;;;28.00;23.67;;;;;17.24;57.14;102325.38;5079788;28;45504;-70
2022/04/15 07:34:21;;;;;;;;;24.33;22.33;;;;;17.36;56.89;102319.50;5067526;28;45247;-70
2022/04/15 07:36:57;;;;;;;;;29.00;25.00;;;;;17.37;56.04;102331.38;5079165;27;45362;-70
2022/04/15 07:39:24;;;;;;;;;128.33;111.00;;;;;17.44;56.00;102321.50;5066912;27;45600;-70
2022/04/15 07:41:50;;;;;;;;;57.50;44.25;;;;;17.49;56.36;102341.97;5077657;28;45577;-70
2022/04/15 07:44:16;;;;;;;;;66.25;50.00;;;;;17.65;55.96;102329.47;5066328;28;45543;-70
2022/04/15 07:46:43;;;;;;;;;14.00;14.00;;;;;17.45;54.95;102328.72;5076563;28;45361;-70
2022/04/15 07:49:09;;;;;;;;;19.67;16.67;;;;;17.53;55.15;102334.31;5081923;28;45570;-70
2022/04/15 07:51:36;;;;;;;;;19.33;16.33;;;;;17.43;55.33;102336.25;5074418;28;45590;-71
2022/04/15 07:54:04;;;;;;;;;17.00;17.00;;;;;17.64;54.35;102334.09;5080583;28;45454;-68
2022/04/15 07:56:30;;;;;;;;;20.33;15.33;;;;;17.66;54.59;102331.19;5072734;27;45398;-69
2022/04/15 07:58:55;;;;;;;;;15.67;13.33;;;;;17.75;55.40;102342.09;5067942;28;45578;-69
2022/04/15 08:01:20;;;;;;;;;16.33;16.33;;;;;18.03;53.87;102334.66;5072261;28;45564;-69
2022/04/15 08:03:46;;;;;;;;;17.00;15.00;;;;;17.89;54.23;102333.34;5061990;28;45309;-69
2022/04/15 08:06:12;;;;;;;;;10.67;10.67;;;;;18.23;52.94;102344.44;5080076;28;45527;-68
2022/04/15 08:08:38;;;;;;;;;11.67;9.00;;;;;18.35;52.16;102333.16;5062893;28;45323;-69
2022/04/15 08:11:03;;;;;;;;;9.67;8.67;;;;;18.25;51.90;102338.78;5068805;28;46285;-69
2022/04/15 08:13:29;;;;;;;;;7.67;6.67;;;;;18.30;52.33;102325.41;5062556;28;45315;-70
2022/04/15 08:15:54;;;;;;;;;4.33;4.33;;;;;18.45;50.79;102345.81;5071570;28;45527;-70
2022/04/15 08:18:21;;;;;;;;;2.00;2.00;;;;;18.60;50.93;102344.22;5065845;28;45254;-70
2022/04/15 08:20:47;;;;;;;;;9.67;9.67;;;;;19.00;51.32;102346.34;5077743;28;46677;-70
2022/04/15 08:23:13;;;;;;;;;14.33;11.00;;;;;19.33;50.14;102332.72;5062287;28;45314;-69
2022/04/15 08:25:38;;;;;;;;;6.67;6.00;;;;;19.44;49.37;102336.00;5074685;28;45523;-70
2022/04/15 08:28:05;;;;;;;;;9.67;9.67;;;;;19.50;48.94;102334.53;5075486;27;45332;-70
2022/04/15 08:30:33;;;;;;;;;6.33;5.00;;;;;19.47;48.68;102339.50;5082907;27;48030;-70
2022/04/15 08:33:00;;;;;;;;;8.33;7.00;;;;;19.56;48.58;102336.59;5072734;28;45377;-71
2022/04/15 08:35:26;;;;;;;;;5.33;4.33;;;;;19.86;48.08;102335.09;5074403;28;45336;-70
2022/04/15 08:37:52;;;;;;;;;7.67;6.00;;;;;19.82;47.75;102333.72;5062398;28;45562;-69
2022/04/15 08:40:17;;;;;;;;;5.00;5.00;;;;;20.09;47.47;102336.13;5073249;28;45344;-69
2022/04/15 08:42:43;;;;;;;;;7.67;7.00;;;;;20.34;46.91;102338.94;5070109;28;45679;-69
2022/04/15 08:45:10;;;;;;;;;7.33;5.00;;;;;20.49;47.98;102328.91;5072375;28;45474;-69
2022/04/15 08:47:36;;;;;;;;;7.00;6.00;;;;;21.18;47.38;102336.50;5068778;28;45425;-69
2022/04/15 08:50:03;;;;;;;;;6.33;6.33;;;;;20.93;44.86;102348.66;5070944;28;46124;-69
2022/04/15 08:52:29;;;;;;;;;5.00;4.67;;;;;20.65;45.67;102328.00;5067743;28;45407;-70
2022/04/15 08:54:55;;;;;;;;;5.00;5.00;;;;;20.79;45.35;102341.97;5069758;28;45340;-70
2022/04/15 08:57:21;;;;;;;;;3.00;3.00;;;;;20.44;45.53;102339.63;5065277;28;45239;-70
2022/04/15 08:59:47;;;;;;;;;6.00;4.00;;;;;20.40;45.35;102341.84;5074086;28;45366;-70
2022/04/15 09:02:15;;;;;;;;;4.00;4.00;;;;;20.64;45.07;102342.84;5064755;28;45286;-69
2022/04/15 09:04:40;;;;;;;;;6.00;4.67;;;;;21.37;44.67;102337.97;5063331;28;45388;-70
2022/04/15 09:07:06;;;;;;;;;5.00;5.00;;;;;21.18;43.38;102338.41;5075739;28;45356;-69
2022/04/15 09:09:32;;;;;;;;;5.67;5.67;;;;;20.89;44.17;102348.13;5068073;28;47404;-69
2022/04/15 09:11:59;;;;;;;;;4.33;4.33;;;;;21.61;44.98;102343.38;5072601;28;45252;-69
2022/04/15 09:14:26;;;;;;;;;4.00;4.00;;;;;21.89;42.15;102345.59;5083647;28;45299;-69
2022/04/15 09:16:52;;;;;;;;;6.33;6.33;;;;;21.89;43.73;102340.94;5065809;28;45433;-69
2022/04/15 09:19:19;;;;;;;;;6.33;5.00;;;;;21.77;44.07;102352.59;5078520;28;47106;-70
2022/04/15 09:21:56;;;;;;;;;8.33;3.67;;;;;22.01;42.76;102350.53;5076737;28;45404;-69
2022/04/15 09:24:30;;;;;;;;;3.33;3.33;;;;;22.14;42.08;102349.91;5067287;28;45513;-69
2022/04/15 09:26:56;;;;;;;;;4.00;3.00;;;;;22.38;42.76;102346.94;5082131;28;45429;-70
2022/04/15 09:29:23;;;;;;;;;5.33;4.00;;;;;22.18;41.75;102351.28;5094141;27;45420;-69
2022/04/15 09:31:54;;;;;;;;;4.33;3.67;;;;;22.84;41.20;102355.19;5073249;28;45303;-70
2022/04/15 09:34:19;;;;;;;;;2.33;2.33;;;;;22.35;40.45;102355.63;5067508;28;45522;-70
2022/04/15 09:36:47;;;;;;;;;5.33;5.00;;;;;22.31;41.98;102345.97;5079624;28;45321;-70
2022/04/15 09:39:16;;;;;;;;;6.00;6.00;;;;;22.82;40.67;102346.19;5068235;28;45478;-70
2022/04/15 09:41:54;;;;;;;;;4.67;4.00;;;;;22.13;41.08;102345.44;5074115;28;45359;-70
2022/04/15 09:44:21;;;;;;;;;2.67;2.67;;;;;22.25;40.64;102352.25;5082370;27;45418;-70
2022/04/15 09:46:47;;;;;;;;;6.00;4.00;;;;;22.23;40.34;102343.28;5075945;28;45382;-70
2022/04/15 09:49:13;;;;;;;;;4.00;4.00;;;;;23.15;41.50;102342.00;5069362;28;48183;-70
2022/04/15 09:51:54;;;;;;;;;2.33;2.00;;;;;23.89;38.90;102344.63;5077196;28;45314;-70
2022/04/15 09:54:28;;;;;;;;;5.67;3.00;;;;;24.28;38.10;102331.13;5071924;28;45422;-70
2022/04/15 09:56:57;;;;;;;;;6.33;5.00;;;;;24.06;37.90;102330.25;5067624;28;45399;-70
2022/04/15 09:59:24;;;;;;;;;5.67;4.00;;;;;23.65;38.12;102334.75;5073924;28;47538;-70
2022/04/15 10:01:57;;;;;;;;;8.00;6.00;;;;;24.11;39.62;102326.03;5070596;28;45430;-70
2022/04/15 10:04:27;;;;;;;;;5.00;4.00;;;;;24.33;37.18;102327.75;5068210;28;45487;-70
2022/04/15 10:06:54;;;;;;;;;8.00;5.00;;;;;24.64;37.58;102341.25;5076310;27;45488;-69
2022/04/15 10:09:20;;;;;;;;;4.67;4.00;;;;;24.44;35.76;102335.53;5067959;28;45598;-69
2022/04/15 10:11:47;;;;;;;;;4.00;3.33;;;;;24.71;34.80;102326.34;5077030;27;45849;-69
2022/04/15 10:14:15;;;;;;;;;1.00;1.00;;;;;24.12;35.53;102327.72;5067677;28;45500;-70
2022/04/15 10:16:42;;;;;;;;;3.00;3.00;;;;;23.48;37.00;102328.56;5073024;28;45405;-69
2022/04/15 10:19:09;;;;;;;;;2.00;2.00;;;;;24.09;37.18;102325.38;5068173;28;45331;-70
2022/04/15 10:21:37;;;;;;;;;3.00;2.00;;;;;24.57;35.15;102301.44;5080184;28;45853;-70
2022/04/15 10:24:04;;;;;;;;;3.33;2.67;;;;;24.57;35.63;102323.66;5072234;27;45284;-70
2022/04/15 10:26:34;;;;;;;;;4.00;3.00;;;;;24.71;35.55;102320.78;5075461;28;45213;-70
2022/04/15 10:29:03;;;;;;;;;3.00;3.00;;;;;24.58;35.80;102326.25;5087729;27;46067;-70
2022/04/15 10:31:38;;;;;;;;;3.00;3.00;;;;;23.86;36.59;102322.78;5073526;28;45425;-71
2022/04/15 10:34:19;;;;;;;;;4.67;4.00;;;;;23.70;36.32;102296.16;5065216;28;45514;-70
2022/04/15 10:36:52;;;;;;;;;3.00;1.33;;;;;24.61;35.08;102314.75;5074384;28;45474;-70
2022/04/15 10:39:24;;;;;;;;;2.00;2.00;;;;;23.79;36.02;102321.88;5082719;28;45622;-70
2022/04/15 10:42:04;;;;;;;;;3.00;2.00;;;;;24.48;34.46;102303.50;5069848;27;45215;-70
2022/04/15 10:44:33;;;;;;;;;4.33;4.33;;;;;24.93;33.92;102306.81;5084576;27;45363;-70
2022/04/15 10:47:28;;;;;;;;;5.67;5.00;;;;;25.15;34.50;102305.66;5073417;27;45286;-69
2022/04/15 10:49:57;;;;;;;;;3.00;3.00;;;;;25.34;33.05;102301.25;5066538;28;48398;-70
2022/04/15 10:52:25;;;;;;;;;9.00;9.00;;;;;25.72;33.61;102309.94;5068609;27;45218;-70
2022/04/15 10:55:12;;;;;;;;;4.00;4.00;;;;;25.98;33.43;102307.22;5068839;28;45740;-70
2022/04/15 10:57:43;;;;;;;;;3.67;2.00;;;;;26.23;33.82;102305.50;5064123;28;45412;-69
2022/04/15 11:03:22;;;;;;;;;2.00;2.00;;;;;26.87;31.92;102296.47;5066388;28;45474;-70
2022/04/15 11:05:48;;;;;;;;;3.67;3.00;;;;;27.11;30.64;102304.13;5069560;28;45703;-70
2022/04/15 11:08:16;;;;;;;;;8.67;7.00;;;;;26.60;31.17;102303.16;5065979;28;45287;-69
2022/04/15 11:10:49;;;;;;;;;2.00;2.00;;;;;25.82;31.49;102296.47;5067303;28;46572;-70
2022/04/15 11:13:27;;;;;;;;;4.33;3.00;;;;;25.77;32.37;102304.63;5063609;28;45439;-70
2022/04/15 11:16:12;;;;;;;;;3.00;3.00;;;;;25.75;32.00;102281.69;5077596;28;45337;-71